createdAt,value
2023-01-17T00:05:17.383Z,14.00
2023-01-17T00:10:22.363Z,13.53
2023-01-17T00:15:26.293Z,13.67
2023-01-17T00:20:49.620Z,12.97
2023-01-17T00:26:04.426Z,14.03
2023-01-17T00:31:08.349Z,13.70
2023-01-17T00:36:11.328Z,14.17
2023-01-17T00:41:15.081Z,14.10
2023-01-17T00:46:36.859Z,14.60
2023-01-17T00:51:57.960Z,13.77
2023-01-17T00:57:19.617Z,13.67
2023-01-17T01:02:41.259Z,14.00
2023-01-17T01:08:02.786Z,15.00
2023-01-17T01:13:23.556Z,14.83
2023-01-17T01:18:44.778Z,14.13
2023-01-17T01:24:06.025Z,14.77
2023-01-17T01:29:26.820Z,14.77
2023-01-17T01:34:29.160Z,13.90
2023-01-17T01:39:31.606Z,14.10
2023-01-17T01:44:45.776Z,14.57
2023-01-17T01:49:48.913Z,13.43
2023-01-17T01:55:02.784Z,14.37
2023-01-17T02:00:14.629Z,14.83
2023-01-17T02:05:20.744Z,14.60
2023-01-17T02:10:23.700Z,15.37
2023-01-17T02:15:36.627Z,15.03
2023-01-17T02:20:48.108Z,15.50
2023-01-17T02:26:18.109Z,15.83
2023-01-17T02:31:28.257Z,16.13
2023-01-17T02:36:34.809Z,16.40
2023-01-17T02:41:43.547Z,17.07
2023-01-17T02:46:55.437Z,16.83
2023-01-17T02:52:22.564Z,18.40
2023-01-17T02:57:31.167Z,18.53
2023-01-17T03:02:48.469Z,20.03
2023-01-17T03:07:52.169Z,17.97
2023-01-17T03:13:00.312Z,18.43
2023-01-17T03:18:06.639Z,19.40
2023-01-17T03:23:09.141Z,19.23
2023-01-17T03:28:11.497Z,19.03
2023-01-17T03:33:16.048Z,19.53
2023-01-17T03:38:19.507Z,19.37
2023-01-17T03:43:21.868Z,18.90
2023-01-17T03:48:24.212Z,19.83
2023-01-17T03:53:26.878Z,18.20
2023-01-17T03:58:29.223Z,17.80
2023-01-17T04:03:31.908Z,18.23
2023-01-17T04:08:34.209Z,18.20
2023-01-17T04:13:36.881Z,18.43
2023-01-17T04:18:39.279Z,18.67
2023-01-17T04:23:41.686Z,18.63
2023-01-17T04:28:44.030Z,17.97
2023-01-17T04:33:46.340Z,16.53
2023-01-17T04:38:48.745Z,18.60
2023-01-17T04:43:51.092Z,17.83
2023-01-17T04:48:53.480Z,17.30
2023-01-17T04:53:55.820Z,16.57
2023-01-17T04:58:58.609Z,15.93
2023-01-17T05:04:01.001Z,16.63
2023-01-17T05:09:03.509Z,21.13
2023-01-17T05:14:05.943Z,16.07
2023-01-17T05:19:08.309Z,19.83
2023-01-17T05:24:10.646Z,19.07
2023-01-17T05:29:12.974Z,18.27
2023-01-17T05:34:15.282Z,20.30
2023-01-17T05:39:17.630Z,18.63
2023-01-17T05:44:20.106Z,15.53
2023-01-17T05:49:22.482Z,33.20
2023-01-17T05:54:24.787Z,15.37
2023-01-17T05:59:36.469Z,12.47
2023-01-17T06:04:39.558Z,12.93
2023-01-17T06:09:41.881Z,11.53
2023-01-17T06:14:44.702Z,10.27
2023-01-17T06:19:46.962Z,11.13
2023-01-17T06:24:49.257Z,10.27
2023-01-17T06:29:51.770Z,9.83
2023-01-17T06:34:54.074Z,9.47
2023-01-17T06:39:56.514Z,10.30
2023-01-17T06:44:58.836Z,8.30
2023-01-17T06:50:03.398Z,10.63
2023-01-17T06:55:06.411Z,7.10
2023-01-17T07:00:09.261Z,6.83
2023-01-17T07:05:11.653Z,7.50
2023-01-17T07:10:14.885Z,7.40
2023-01-17T07:15:17.312Z,11.93
2023-01-17T07:20:19.610Z,8.50
2023-01-17T07:25:22.334Z,9.30
2023-01-17T07:30:25.405Z,6.50
2023-01-17T07:35:28.198Z,6.47
2023-01-17T07:40:31.194Z,8.83
2023-01-17T07:45:34.674Z,5.60
2023-01-17T07:50:37.428Z,6.73
2023-01-17T07:55:39.742Z,5.93
2023-01-17T08:00:44.330Z,7.37
2023-01-17T08:05:55.332Z,7.20
2023-01-17T08:10:57.679Z,8.67
2023-01-17T08:16:02.844Z,7.40
2023-01-17T08:21:11.347Z,5.43
2023-01-17T08:26:21.495Z,4.03
2023-01-17T08:31:24.669Z,4.40
2023-01-17T08:36:28.613Z,6.67
2023-01-17T08:41:32.228Z,7.70
2023-01-17T08:46:34.562Z,7.87
2023-01-17T08:51:36.895Z,5.23
2023-01-17T08:56:39.442Z,5.70
2023-01-17T09:01:42.333Z,3.10
2023-01-17T09:06:45.552Z,5.57
2023-01-17T09:11:48.180Z,5.67
2023-01-17T09:16:51.438Z,6.57
2023-01-17T09:21:53.838Z,6.63
2023-01-17T09:26:56.128Z,4.07
2023-01-17T09:31:58.580Z,3.80
2023-01-17T09:37:00.924Z,4.90
2023-01-17T09:42:10.845Z,5.80
2023-01-17T09:47:20.726Z,11.17
2023-01-17T09:52:24.550Z,16.00
2023-01-17T09:58:04.030Z,8.03
2023-01-17T10:03:09.299Z,5.60
2023-01-17T10:08:31.355Z,4.77
2023-01-17T10:13:49.721Z,120.40
2023-01-17T10:19:08.334Z,41.67
2023-01-17T10:24:27.370Z,3.67
2023-01-17T10:29:34.784Z,6.93
2023-01-17T10:34:55.283Z,8.83
2023-01-17T10:40:12.057Z,7.37
2023-01-17T10:45:21.020Z,6.67
2023-01-17T10:50:26.464Z,4.60
2023-01-17T10:55:41.827Z,4.97
2023-01-17T11:00:55.019Z,4.63
2023-01-17T11:06:17.075Z,12.10
2023-01-17T11:11:23.331Z,20.23
2023-01-17T11:16:29.636Z,7.80
2023-01-17T11:21:33.124Z,4.43
2023-01-17T11:26:38.703Z,3.30
2023-01-17T11:31:41.313Z,2.73
2023-01-17T11:36:43.983Z,19.30
2023-01-17T11:41:47.913Z,8.10
2023-01-17T11:47:13.658Z,2.97
2023-01-17T11:52:32.968Z,3.17
2023-01-17T11:57:36.328Z,2.40
2023-01-17T12:02:57.427Z,1.80
2023-01-17T12:08:37.461Z,1.93
2023-01-17T12:14:01.774Z,3.57
2023-01-17T12:19:22.967Z,2.43
2023-01-17T12:24:42.782Z,4.57
2023-01-17T12:30:10.318Z,3.53
2023-01-17T12:35:20.191Z,3.80
2023-01-17T12:40:49.746Z,9.67
2023-01-17T12:45:54.745Z,6.03
2023-01-17T12:51:05.840Z,8.67
2023-01-17T12:56:14.208Z,3.93
2023-01-17T13:01:31.796Z,6.57
2023-01-17T13:06:59.772Z,1.53
2023-01-17T13:12:11.171Z,2.10
2023-01-17T13:17:26.100Z,3.57
2023-01-17T13:22:38.839Z,2.30
2023-01-17T13:28:03.144Z,1.60
2023-01-17T13:33:40.724Z,1.10
2023-01-17T13:38:55.428Z,1.33
2023-01-17T13:44:19.255Z,1.40
2023-01-17T13:49:34.297Z,5.33
2023-01-17T13:54:48.363Z,1.93
2023-01-17T13:59:50.927Z,1.57
2023-01-17T14:05:21.372Z,3.90
2023-01-17T14:10:41.761Z,1.20
2023-01-17T14:15:49.902Z,4.67
2023-01-17T14:21:05.859Z,1.77
2023-01-17T14:26:26.237Z,2.27
2023-01-17T14:31:30.456Z,1.40
2023-01-17T14:36:33.239Z,4.33
2023-01-17T14:41:35.604Z,2.13
2023-01-17T14:46:38.028Z,4.70
2023-01-17T14:51:40.424Z,2.00
2023-01-17T14:56:42.678Z,2.03
2023-01-17T15:02:06.793Z,4.37
2023-01-17T15:07:16.945Z,4.93
2023-01-17T15:12:19.598Z,2.20
2023-01-17T15:17:26.461Z,4.83
2023-01-17T15:22:29.841Z,3.40
2023-01-17T15:27:32.649Z,7.30
2023-01-17T15:32:35.263Z,10.97
2023-01-17T15:37:41.830Z,8.23
2023-01-17T15:42:47.770Z,7.10
2023-01-17T15:47:50.212Z,5.50
2023-01-17T15:52:55.266Z,14.80
2023-01-17T15:57:57.686Z,8.80
2023-01-17T16:03:00.316Z,6.33
2023-01-17T16:08:02.785Z,8.60
2023-01-17T16:13:07.185Z,7.40
2023-01-17T16:18:26.183Z,19.87
2023-01-17T16:23:28.662Z,7.63
2023-01-17T16:28:31.024Z,9.37
2023-01-17T16:33:33.984Z,15.83
2023-01-17T16:38:36.326Z,10.53
2023-01-17T16:43:38.929Z,6.80
2023-01-17T16:48:41.305Z,8.43
2023-01-17T16:53:43.651Z,23.50
2023-01-17T16:58:45.961Z,11.13
2023-01-17T17:03:48.629Z,21.50
2023-01-17T17:08:51.059Z,22.60
2023-01-17T17:13:53.725Z,28.53
2023-01-17T17:18:58.810Z,9.90
2023-01-17T17:24:01.673Z,8.83
2023-01-17T17:29:05.420Z,94.53
2023-01-17T17:34:11.119Z,45.27
2023-01-17T17:39:17.354Z,26.90
2023-01-17T17:44:19.747Z,20.97
2023-01-17T17:49:22.752Z,19.90
2023-01-17T17:54:27.392Z,20.20
2023-01-17T17:59:29.984Z,19.70
2023-01-17T18:04:32.372Z,39.63
2023-01-17T18:09:34.738Z,18.10
2023-01-17T18:14:37.299Z,15.87
2023-01-17T18:19:40.167Z,17.47
2023-01-17T18:24:42.525Z,24.07
2023-01-17T18:29:44.821Z,22.43
2023-01-17T18:34:47.864Z,22.60
2023-01-17T18:39:50.458Z,26.13
2023-01-17T18:44:52.830Z,33.37
2023-01-17T18:49:55.104Z,41.07
2023-01-17T18:54:57.477Z,50.33
2023-01-17T18:59:59.850Z,64.77
2023-01-17T19:05:05.537Z,59.87
2023-01-17T19:10:08.607Z,84.50
2023-01-17T19:15:11.282Z,69.20
2023-01-17T19:20:13.842Z,64.90
2023-01-17T19:25:16.288Z,85.00
2023-01-17T19:30:19.656Z,71.37
2023-01-17T19:35:23.165Z,60.60
2023-01-17T19:40:26.326Z,94.60
2023-01-17T19:45:28.777Z,92.27
2023-01-17T19:50:31.149Z,101.97
2023-01-17T19:55:33.565Z,90.43
2023-01-17T20:00:45.939Z,129.97
2023-01-17T20:05:56.667Z,99.73
2023-01-17T20:11:09.917Z,86.37
2023-01-17T20:16:15.132Z,73.20
2023-01-17T20:21:20.362Z,68.90
2023-01-17T20:26:29.689Z,78.10
2023-01-17T20:31:32.300Z,70.93
2023-01-17T20:36:34.993Z,65.33
2023-01-17T20:41:40.219Z,72.63
2023-01-17T20:46:43.197Z,69.93
2023-01-17T20:51:46.678Z,76.70
2023-01-17T20:56:49.262Z,82.40
2023-01-17T21:01:51.942Z,78.53
2023-01-17T21:06:55.297Z,76.50
2023-01-17T21:12:01.233Z,96.30
2023-01-17T21:17:03.732Z,105.13
2023-01-17T21:22:06.721Z,74.97
2023-01-17T21:27:09.160Z,68.67
2023-01-17T21:32:11.513Z,81.33
2023-01-17T21:37:14.467Z,73.23
2023-01-17T21:42:16.999Z,67.97
2023-01-17T21:47:19.289Z,67.07
2023-01-17T21:52:21.671Z,49.97
2023-01-17T21:57:42.751Z,45.00
2023-01-17T22:02:46.804Z,36.63
2023-01-17T22:08:07.905Z,34.17
2023-01-17T22:13:20.156Z,32.00
2023-01-17T22:18:23.434Z,30.63
2023-01-17T22:23:25.873Z,30.73
2023-01-17T22:28:31.956Z,34.40
2023-01-17T22:33:34.912Z,35.83
2023-01-17T22:38:38.184Z,32.30
2023-01-17T22:43:42.664Z,46.37
2023-01-17T22:48:45.387Z,53.93
2023-01-17T22:53:54.896Z,45.43
2023-01-17T22:59:01.506Z,62.77
2023-01-17T23:04:05.021Z,85.77
2023-01-17T23:09:10.845Z,83.57
2023-01-17T23:14:16.197Z,61.77
2023-01-17T23:19:24.559Z,54.67
2023-01-17T23:24:26.868Z,53.90
2023-01-17T23:29:29.173Z,53.33
2023-01-17T23:34:31.480Z,51.23
2023-01-17T23:39:34.099Z,50.27
2023-01-17T23:44:36.427Z,64.30
2023-01-17T23:49:38.746Z,64.93
2023-01-17T23:54:41.083Z,67.10
2023-01-17T23:59:43.481Z,52.27
